Time;durP1;ratioP1;P1;durP2;ratioP2;P2;SDS_P1;SDS_P2;PMS_P1;PMS_P2;Temp;Humidity;BMP_temperature;BMP_pressure;BME280_temperature;BME280_humidity;BME280_pressure;Samples;Min_cycle;Max_cycle;Signal;HPM_P1;HPM_P2
2023/04/20 00:02:01;;;;;;;2.53;1.67;;;;;;;;;;5105644;28;20437;-61
2023/04/20 00:04:28;;;;;;;3.70;1.75;;;;;;;;;;5108507;28;20032;-60
2023/04/20 00:06:55;;;;;;;2.35;1.60;;;;;;;;;;5111405;28;20028;-62
2023/04/20 00:09:22;;;;;;;3.67;1.70;;;;;;;;;;5111330;28;20110;-61
2023/04/20 00:11:48;;;;;;;3.22;2.03;;;;;;;;;;5110346;28;20028;-61
2023/04/20 00:14:15;;;;;;;2.75;1.90;;;;;;;;;;5104020;28;20429;-60
2023/04/20 00:16:41;;;;;;;2.72;1.73;;;;;;;;;;5104893;28;20368;-61
2023/04/20 00:19:08;;;;;;;2.53;1.85;;;;;;;;;;5105370;28;20022;-61
2023/04/20 00:21:34;;;;;;;3.22;1.80;;;;;;;;;;5104948;28;20031;-61
2023/04/20 00:24:00;;;;;;;2.78;1.90;;;;;;;;;;5107882;28;20385;-61
2023/04/20 00:26:26;;;;;;;3.58;2.10;;;;;;;;;;5111790;28;20032;-61
2023/04/20 00:28:52;;;;;;;3.17;2.00;;;;;;;;;;5108275;28;20069;-60
2023/04/20 00:31:19;;;;;;;2.55;1.70;;;;;;;;;;5104929;28;20039;-61
2023/04/20 00:33:44;;;;;;;3.10;1.63;;;;;;;;;;5104451;28;20027;-60
2023/04/20 00:36:10;;;;;;;3.00;1.95;;;;;;;;;;5104883;28;20024;-61
2023/04/20 00:38:36;;;;;;;2.38;2.10;;;;;;;;;;5104599;28;20530;-61
2023/04/20 00:41:02;;;;;;;3.55;2.70;;;;;;;;;;5104766;28;20046;-60
2023/04/20 00:43:28;;;;;;;2.95;1.80;;;;;;;;;;5105429;28;20023;-61
2023/04/20 00:45:54;;;;;;;2.22;1.83;;;;;;;;;;5104445;28;20099;-61
2023/04/20 00:48:21;;;;;;;3.97;1.92;;;;;;;;;;5104671;28;20035;-60
2023/04/20 00:50:48;;;;;;;3.08;1.83;;;;;;;;;;5106521;28;20027;-60
2023/04/20 00:53:14;;;;;;;2.78;1.70;;;;;;;;;;5107680;28;20059;-61
2023/04/20 00:55:42;;;;;;;2.00;1.52;;;;;;;;;;5104663;28;20175;-61
2023/04/20 00:58:08;;;;;;;2.20;1.52;;;;;;;;;;5105619;28;20020;-61
2023/04/20 01:00:34;;;;;;;2.20;1.63;;;;;;;;;;5103276;28;20020;-60
2023/04/20 01:03:00;;;;;;;2.65;1.75;;;;;;;;;;5105118;28;20044;-60
2023/04/20 01:05:26;;;;;;;3.85;1.70;;;;;;;;;;5104902;28;20024;-60
2023/04/20 01:07:52;;;;;;;2.28;1.73;;;;;;;;;;5104862;28;20475;-61
2023/04/20 01:10:18;;;;;;;4.70;1.90;;;;;;;;;;5105849;28;20028;-60
2023/04/20 01:12:44;;;;;;;3.50;2.03;;;;;;;;;;5104154;28;20017;-61
2023/04/20 01:15:10;;;;;;;3.45;1.95;;;;;;;;;;5104567;28;20037;-61
2023/04/20 01:17:38;;;;;;;3.17;1.63;;;;;;;;;;5104388;28;20055;-60
2023/04/20 01:20:06;;;;;;;2.97;1.85;;;;;;;;;;5106295;28;20030;-60
2023/04/20 01:22:32;;;;;;;5.45;2.30;;;;;;;;;;5111310;28;20039;-60
2023/04/20 01:24:58;;;;;;;3.95;1.80;;;;;;;;;;5114928;28;20110;-61
2023/04/20 01:27:25;;;;;;;2.38;1.70;;;;;;;;;;5114816;28;20047;-61
2023/04/20 01:29:51;;;;;;;4.07;1.70;;;;;;;;;;5110350;28;20513;-60
2023/04/20 01:32:17;;;;;;;3.25;1.70;;;;;;;;;;5108327;28;20051;-60
2023/04/20 01:34:43;;;;;;;3.58;2.25;;;;;;;;;;5108361;28;20035;-60
2023/04/20 01:37:09;;;;;;;3.05;1.88;;;;;;;;;;5108708;28;20073;-60
2023/04/20 01:39:38;;;;;;;3.17;2.00;;;;;;;;;;5108079;28;20031;-61
2023/04/20 01:42:05;;;;;;;2.67;2.05;;;;;;;;;;5108258;28;20100;-60
2023/04/20 01:44:31;;;;;;;2.67;1.77;;;;;;;;;;5106531;28;20038;-61
2023/04/20 01:46:57;;;;;;;2.63;1.95;;;;;;;;;;5107836;28;20050;-60
2023/04/20 01:49:23;;;;;;;2.58;1.85;;;;;;;;;;5109008;28;20032;-61
2023/04/20 01:51:49;;;;;;;3.10;1.67;;;;;;;;;;5110325;27;20498;-61
2023/04/20 01:54:15;;;;;;;3.40;1.88;;;;;;;;;;5109547;28;20114;-61
2023/04/20 01:56:41;;;;;;;4.63;1.65;;;;;;;;;;5107575;28;20110;-60
2023/04/20 01:59:07;;;;;;;2.95;1.85;;;;;;;;;;5108446;28;20024;-61
2023/04/20 02:01:33;;;;;;;2.50;1.65;;;;;;;;;;5107347;28;20059;-60
2023/04/20 02:04:00;;;;;;;2.58;1.70;;;;;;;;;;5108565;28;20034;-61
2023/04/20 02:06:26;;;;;;;3.05;1.98;;;;;;;;;;5109815;28;20068;-61
2023/04/20 02:08:52;;;;;;;2.90;2.10;;;;;;;;;;5107230;28;20031;-61
2023/04/20 02:11:18;;;;;;;2.67;1.80;;;;;;;;;;5107220;28;20028;-61
2023/04/20 02:13:44;;;;;;;2.10;1.67;;;;;;;;;;5107067;28;20024;-60
2023/04/20 02:16:10;;;;;;;3.50;1.98;;;;;;;;;;5107672;28;20451;-62
2023/04/20 02:18:36;;;;;;;2.00;1.40;;;;;;;;;;5107161;28;20020;-60
2023/04/20 02:21:02;;;;;;;4.68;1.80;;;;;;;;;;5107110;28;20530;-62
2023/04/20 02:23:28;;;;;;;3.13;1.83;;;;;;;;;;5107627;28;20040;-62
2023/04/20 02:25:54;;;;;;;2.67;1.70;;;;;;;;;;5107551;28;20024;-62
2023/04/20 02:28:20;;;;;;;3.05;2.00;;;;;;;;;;5106861;28;20027;-62
2023/04/20 02:30:46;;;;;;;2.95;1.70;;;;;;;;;;5106490;28;20045;-62
2023/04/20 02:33:12;;;;;;;3.00;1.90;;;;;;;;;;5105567;28;21535;-62
2023/04/20 02:35:38;;;;;;;2.55;2.03;;;;;;;;;;5106795;28;20038;-62
2023/04/20 02:38:04;;;;;;;3.60;2.03;;;;;;;;;;5107004;27;20043;-62
2023/04/20 02:40:30;;;;;;;2.33;1.98;;;;;;;;;;5107202;28;20403;-62
2023/04/20 02:42:56;;;;;;;2.95;2.22;;;;;;;;;;5107154;28;21566;-62
2023/04/20 02:45:22;;;;;;;2.53;1.95;;;;;;;;;;5106918;28;20020;-62
2023/04/20 02:47:48;;;;;;;3.20;1.92;;;;;;;;;;5106493;28;20494;-62
2023/04/20 02:50:14;;;;;;;3.05;2.00;;;;;;;;;;5108885;28;20028;-62
2023/04/20 02:52:40;;;;;;;4.45;2.30;;;;;;;;;;5106454;28;20098;-61
2023/04/20 02:55:07;;;;;;;4.45;1.98;;;;;;;;;;5106625;28;20069;-62
2023/04/20 02:57:33;;;;;;;2.00;1.50;;;;;;;;;;5106406;28;20020;-62
2023/04/20 02:59:58;;;;;;;3.20;1.85;;;;;;;;;;5106832;28;20072;-62
2023/04/20 03:02:24;;;;;;;2.80;1.80;;;;;;;;;;5106460;28;20038;-61
2023/04/20 03:04:50;;;;;;;3.17;2.10;;;;;;;;;;5107727;28;20031;-62
2023/04/20 03:07:17;;;;;;;3.38;1.95;;;;;;;;;;5106484;28;20548;-62
2023/04/20 03:09:43;;;;;;;3.45;2.20;;;;;;;;;;5106836;28;20019;-62
2023/04/20 03:12:09;;;;;;;2.85;2.13;;;;;;;;;;5106392;28;20028;-62
2023/04/20 03:14:35;;;;;;;3.40;2.03;;;;;;;;;;5105921;28;20403;-62
2023/04/20 03:17:01;;;;;;;2.40;1.85;;;;;;;;;;5107048;28;20034;-62
2023/04/20 03:19:27;;;;;;;2.47;1.75;;;;;;;;;;5112572;28;20035;-62
2023/04/20 03:21:53;;;;;;;3.75;2.08;;;;;;;;;;5111956;28;20055;-62
2023/04/20 03:24:19;;;;;;;3.35;2.10;;;;;;;;;;5110348;28;20145;-62
2023/04/20 03:26:45;;;;;;;2.95;1.98;;;;;;;;;;5105755;28;20031;-62
2023/04/20 03:29:11;;;;;;;5.20;2.30;;;;;;;;;;5106431;28;20054;-62
2023/04/20 03:31:37;;;;;;;2.85;1.95;;;;;;;;;;5105990;28;20495;-62
2023/04/20 03:34:03;;;;;;;2.28;1.67;;;;;;;;;;5109106;28;20031;-62
2023/04/20 03:36:29;;;;;;;3.08;1.80;;;;;;;;;;5106070;28;20035;-62
2023/04/20 03:38:55;;;;;;;4.43;1.95;;;;;;;;;;5105637;28;20107;-62
2023/04/20 03:41:21;;;;;;;2.60;1.70;;;;;;;;;;5105808;28;20706;-62
2023/04/20 03:43:47;;;;;;;2.70;1.70;;;;;;;;;;5104571;28;20116;-62
2023/04/20 03:46:13;;;;;;;3.75;2.08;;;;;;;;;;5106428;28;20080;-62
2023/04/20 03:48:39;;;;;;;2.67;1.90;;;;;;;;;;5108118;28;20566;-62
2023/04/20 03:51:05;;;;;;;2.55;1.70;;;;;;;;;;5110079;28;20043;-62
2023/04/20 03:53:31;;;;;;;3.67;1.67;;;;;;;;;;5105573;28;20054;-62
2023/04/20 03:55:57;;;;;;;3.60;2.25;;;;;;;;;;5104203;28;20110;-62
2023/04/20 03:58:23;;;;;;;3.22;1.67;;;;;;;;;;5105560;28;20031;-61
2023/04/20 04:00:49;;;;;;;2.35;1.85;;;;;;;;;;5105046;28;20039;-61
2023/04/20 04:03:15;;;;;;;3.60;1.70;;;;;;;;;;5107367;28;20040;-61
2023/04/20 04:05:41;;;;;;;2.70;1.70;;;;;;;;;;5108319;28;20023;-62
2023/04/20 04:08:07;;;;;;;3.75;2.10;;;;;;;;;;5105222;28;20023;-62
2023/04/20 04:10:33;;;;;;;2.50;1.70;;;;;;;;;;5104974;28;20368;-62
2023/04/20 04:12:59;;;;;;;2.97;1.80;;;;;;;;;;5105275;28;20036;-61
2023/04/20 04:15:25;;;;;;;3.72;2.10;;;;;;;;;;5105002;28;20055;-61
2023/04/20 04:17:53;;;;;;;3.97;1.80;;;;;;;;;;5107383;28;20062;-62
2023/04/20 04:20:19;;;;;;;3.15;2.22;;;;;;;;;;5111176;28;20503;-62
2023/04/20 04:22:45;;;;;;;6.07;1.90;;;;;;;;;;5110473;28;20050;-62
2023/04/20 04:25:11;;;;;;;2.88;1.55;;;;;;;;;;5108209;28;20032;-62
2023/04/20 04:27:38;;;;;;;2.88;1.65;;;;;;;;;;5103278;28;20059;-62
2023/04/20 04:30:04;;;;;;;4.18;2.22;;;;;;;;;;5105213;28;20023;-61
2023/04/20 04:32:33;;;;;;;3.65;2.08;;;;;;;;;;5105288;28;20395;-61
2023/04/20 04:35:00;;;;;;;4.40;2.05;;;;;;;;;;5105511;28;20024;-61
2023/04/20 04:37:26;;;;;;;3.47;2.13;;;;;;;;;;5104720;28;20503;-61
2023/04/20 04:39:53;;;;;;;3.38;2.10;;;;;;;;;;5104837;28;20439;-61
2023/04/20 04:42:19;;;;;;;3.08;2.00;;;;;;;;;;5104830;28;20043;-61
2023/04/20 04:44:45;;;;;;;3.78;1.70;;;;;;;;;;5106001;28;20107;-61
2023/04/20 04:47:11;;;;;;;3.38;1.90;;;;;;;;;;5104844;28;20087;-61
2023/04/20 04:49:39;;;;;;;5.78;2.15;;;;;;;;;;5106814;28;20019;-61
2023/04/20 04:52:05;;;;;;;3.15;1.70;;;;;;;;;;5107102;28;20152;-61
2023/04/20 04:54:31;;;;;;;2.67;1.95;;;;;;;;;;5110225;28;20038;-61
2023/04/20 04:56:57;;;;;;;3.75;2.30;;;;;;;;;;5109061;28;20024;-61
2023/04/20 04:59:23;;;;;;;3.40;1.88;;;;;;;;;;5109693;27;20061;-61
2023/04/20 05:01:49;;;;;;;4.00;1.83;;;;;;;;;;5110238;28;20786;-61
2023/04/20 05:04:15;;;;;;;3.10;2.30;;;;;;;;;;5109132;28;20020;-61
2023/04/20 05:06:41;;;;;;;3.70;1.80;;;;;;;;;;5108811;28;20402;-61
2023/04/20 05:09:07;;;;;;;2.90;2.10;;;;;;;;;;5111713;28;20030;-61
2023/04/20 05:11:33;;;;;;;2.95;1.95;;;;;;;;;;5110350;28;20088;-61
2023/04/20 05:14:01;;;;;;;5.03;1.98;;;;;;;;;;5109481;28;21635;-61
2023/04/20 05:16:27;;;;;;;3.00;1.83;;;;;;;;;;5108952;28;20035;-61
2023/04/20 05:18:53;;;;;;;5.05;1.77;;;;;;;;;;5110342;28;20059;-61
2023/04/20 05:21:19;;;;;;;3.58;2.13;;;;;;;;;;5110041;28;20576;-61
2023/04/20 05:23:45;;;;;;;3.72;2.28;;;;;;;;;;5113283;28;20123;-61
2023/04/20 05:26:11;;;;;;;2.97;2.00;;;;;;;;;;5116458;27;20034;-62
2023/04/20 05:28:37;;;;;;;3.10;2.10;;;;;;;;;;5125148;27;20034;-60
2023/04/20 05:31:03;;;;;;;4.60;1.77;;;;;;;;;;5113296;28;20028;-61
2023/04/20 05:33:29;;;;;;;4.88;2.40;;;;;;;;;;5113714;28;20020;-60
2023/04/20 05:35:58;;;;;;;2.67;2.10;;;;;;;;;;5108349;28;20525;-60
2023/04/20 05:38:24;;;;;;;1.98;1.52;;;;;;;;;;5113417;28;20544;-60
2023/04/20 05:40:50;;;;;;;3.25;1.67;;;;;;;;;;5113767;28;20499;-60
2023/04/20 05:43:18;;;;;;;5.75;1.77;;;;;;;;;;5113763;28;20044;-61
2023/04/20 05:45:44;;;;;;;4.57;1.70;;;;;;;;;;5114218;28;20027;-61
2023/04/20 05:48:10;;;;;;;3.83;2.00;;;;;;;;;;5113763;28;20059;-61
2023/04/20 05:50:36;;;;;;;4.70;2.10;;;;;;;;;;5114526;28;20514;-62
2023/04/20 05:53:02;;;;;;;4.80;1.92;;;;;;;;;;5114292;28;20026;-61
2023/04/20 05:55:28;;;;;;;4.28;1.73;;;;;;;;;;5114256;27;20110;-62
2023/04/20 05:57:53;;;;;;;9.27;2.08;;;;;;;;;;5114235;28;20485;-61
2023/04/20 06:00:21;;;;;;;5.60;2.15;;;;;;;;;;5114415;28;20028;-61
2023/04/20 06:02:47;;;;;;;4.72;2.03;;;;;;;;;;5113738;28;20114;-61
2023/04/20 06:05:13;;;;;;;5.75;1.75;;;;;;;;;;5113505;28;20027;-61
2023/04/20 06:07:39;;;;;;;4.20;2.28;;;;;;;;;;5113944;28;20051;-61
2023/04/20 06:10:07;;;;;;;5.22;2.00;;;;;;;;;;5114227;28;20027;-61
2023/04/20 06:12:33;;;;;;;9.48;2.30;;;;;;;;;;5113510;28;20495;-60
2023/04/20 06:14:59;;;;;;;8.80;2.45;;;;;;;;;;5113555;28;20038;-64
2023/04/20 06:17:25;;;;;;;2.95;2.10;;;;;;;;;;5113021;28;20020;-64
2023/04/20 06:19:51;;;;;;;3.80;2.35;;;;;;;;;;5112874;28;20395;-61
2023/04/20 06:22:18;;;;;;;5.75;2.25;;;;;;;;;;5113416;28;20035;-63
2023/04/20 06:24:44;;;;;;;3.65;1.90;;;;;;;;;;5113150;28;20020;-62
2023/04/20 06:27:10;;;;;;;4.90;2.55;;;;;;;;;;5113889;28;20024;-63
2023/04/20 06:29:36;;;;;;;3.13;2.08;;;;;;;;;;5111997;28;20059;-61
2023/04/20 06:32:03;;;;;;;4.43;2.10;;;;;;;;;;5113522;28;20027;-63
2023/04/20 06:34:29;;;;;;;6.63;2.55;;;;;;;;;;5113617;28;20031;-63
2023/04/20 06:36:55;;;;;;;5.47;2.25;;;;;;;;;;5113535;28;20051;-64
2023/04/20 06:39:21;;;;;;;5.93;2.13;;;;;;;;;;5117909;27;20076;-61
2023/04/20 06:41:47;;;;;;;5.78;2.45;;;;;;;;;;5133619;27;20027;-62
2023/04/20 06:44:13;;;;;;;4.90;2.03;;;;;;;;;;5133996;27;20050;-61
2023/04/20 06:46:39;;;;;;;4.53;2.33;;;;;;;;;;5120281;27;20437;-62
2023/04/20 06:49:05;;;;;;;3.88;2.40;;;;;;;;;;5119250;27;20027;-64
2023/04/20 06:51:34;;;;;;;5.05;2.05;;;;;;;;;;5113031;28;20078;-64
2023/04/20 06:53:59;;;;;;;6.13;2.22;;;;;;;;;;5113138;28;20035;-62
2023/04/20 06:56:26;;;;;;;6.60;2.70;;;;;;;;;;5113077;28;20019;-63
2023/04/20 06:58:52;;;;;;;4.13;2.40;;;;;;;;;;5112914;28;20050;-64
2023/04/20 07:01:17;;;;;;;4.50;2.28;;;;;;;;;;5113301;28;20050;-62
2023/04/20 07:03:45;;;;;;;4.90;2.60;;;;;;;;;;5112824;28;20072;-61
2023/04/20 07:06:11;;;;;;;4.93;2.25;;;;;;;;;;5113031;28;20035;-61
2023/04/20 07:08:38;;;;;;;4.10;2.53;;;;;;;;;;5112859;28;20034;-61
2023/04/20 07:11:04;;;;;;;5.38;2.40;;;;;;;;;;5113215;28;20467;-62
2023/04/20 07:13:30;;;;;;;4.82;2.97;;;;;;;;;;5112591;28;20030;-62
2023/04/20 07:15:56;;;;;;;4.57;2.53;;;;;;;;;;5111572;28;20027;-61
2023/04/20 07:18:22;;;;;;;3.33;2.40;;;;;;;;;;5111692;28;20031;-62
2023/04/20 07:20:48;;;;;;;4.78;2.47;;;;;;;;;;5112319;28;20104;-62
2023/04/20 07:23:14;;;;;;;7.20;2.35;;;;;;;;;;5112354;28;20513;-63
2023/04/20 07:25:40;;;;;;;3.97;2.28;;;;;;;;;;5119836;27;20023;-61
2023/04/20 07:28:06;;;;;;;4.47;2.20;;;;;;;;;;5133272;27;20102;-61
2023/04/20 07:30:32;;;;;;;2.90;1.90;;;;;;;;;;5132890;27;20098;-62
2023/04/20 07:32:58;;;;;;;5.35;2.20;;;;;;;;;;5133034;27;20019;-61
2023/04/20 07:35:24;;;;;;;4.80;2.92;;;;;;;;;;5125570;27;20019;-61
2023/04/20 07:37:50;;;;;;;3.28;2.05;;;;;;;;;;5112142;28;20479;-62
2023/04/20 07:40:16;;;;;;;10.15;2.13;;;;;;;;;;5111725;28;20032;-62
2023/04/20 07:42:42;;;;;;;3.28;2.00;;;;;;;;;;5111692;27;20463;-62
2023/04/20 07:45:10;;;;;;;4.68;2.38;;;;;;;;;;5112404;28;20058;-62
2023/04/20 07:47:36;;;;;;;3.08;2.50;;;;;;;;;;5111941;28;20066;-62
2023/04/20 07:50:02;;;;;;;5.82;2.60;;;;;;;;;;5111920;28;20027;-61
2023/04/20 07:52:28;;;;;;;3.47;2.28;;;;;;;;;;5110958;28;20028;-62
2023/04/20 07:54:58;;;;;;;7.28;2.75;;;;;;;;;;5110598;28;20364;-64
2023/04/20 07:57:24;;;;;;;5.63;2.42;;;;;;;;;;5111691;28;20493;-61
2023/04/20 07:59:50;;;;;;;5.32;3.15;;;;;;;;;;5111461;28;20034;-62
2023/04/20 08:02:16;;;;;;;4.50;2.22;;;;;;;;;;5111845;28;20032;-61
2023/04/20 08:04:43;;;;;;;3.83;2.28;;;;;;;;;;5111557;28;20497;-62
2023/04/20 08:07:09;;;;;;;5.97;2.78;;;;;;;;;;5111758;28;20098;-61
2023/04/20 08:09:35;;;;;;;3.90;2.38;;;;;;;;;;5111194;28;20055;-62
2023/04/20 08:12:01;;;;;;;4.43;2.45;;;;;;;;;;5111197;28;20030;-62
2023/04/20 08:14:27;;;;;;;5.13;2.63;;;;;;;;;;5111795;28;20027;-64
2023/04/20 08:16:53;;;;;;;7.38;2.28;;;;;;;;;;5111184;28;20533;-62
2023/04/20 08:19:19;;;;;;;4.05;2.20;;;;;;;;;;5111695;28;20110;-62
2023/04/20 08:21:45;;;;;;;4.68;2.42;;;;;;;;;;5111178;28;20032;-63
2023/04/20 08:24:12;;;;;;;4.90;2.33;;;;;;;;;;5111730;28;20028;-61
2023/04/20 08:26:39;;;;;;;3.13;2.10;;;;;;;;;;5111738;28;20023;-61
2023/04/20 08:29:05;;;;;;;2.95;1.98;;;;;;;;;;5110481;28;20023;-61
2023/04/20 08:31:31;;;;;;;4.15;2.55;;;;;;;;;;5110616;28;20805;-61
2023/04/20 08:33:57;;;;;;;3.33;2.03;;;;;;;;;;5111286;28;20042;-62
2023/04/20 08:36:23;;;;;;;3.90;2.63;;;;;;;;;;5111549;28;20016;-61
2023/04/20 08:39:09;;;;;;;3.42;2.13;;;;;;;;;;5110792;28;20059;-63
2023/04/20 08:41:36;;;;;;;6.75;2.45;;;;;;;;;;5111278;28;20035;-64
2023/04/20 08:44:02;;;;;;;5.38;2.50;;;;;;;;;;5110264;28;20043;-62
2023/04/20 08:46:28;;;;;;;3.97;2.33;;;;;;;;;;5111256;28;20020;-62
2023/04/20 08:48:54;;;;;;;4.80;2.63;;;;;;;;;;5110375;28;20063;-61
2023/04/20 08:51:21;;;;;;;3.03;1.88;;;;;;;;;;5111601;28;20383;-62
2023/04/20 08:53:47;;;;;;;3.70;2.22;;;;;;;;;;5109764;28;20035;-61
2023/04/20 08:56:13;;;;;;;3.13;1.90;;;;;;;;;;5111086;28;20019;-61
2023/04/20 08:58:41;;;;;;;4.72;2.30;;;;;;;;;;5111533;28;20483;-61
2023/04/20 09:01:08;;;;;;;4.10;2.55;;;;;;;;;;5111252;28;20019;-62
2023/04/20 09:03:34;;;;;;;3.15;2.30;;;;;;;;;;5111117;28;20399;-62
2023/04/20 09:06:00;;;;;;;3.97;2.35;;;;;;;;;;5111443;28;20020;-62
2023/04/20 09:08:36;;;;;;;3.67;2.08;;;;;;;;;;5111294;28;20433;-61
2023/04/20 09:11:02;;;;;;;5.30;2.65;;;;;;;;;;5111426;28;20472;-61
2023/04/20 09:13:28;;;;;;;4.25;2.35;;;;;;;;;;5111314;28;20020;-61
2023/04/20 09:15:54;;;;;;;4.38;2.10;;;;;;;;;;5111298;28;20027;-62
2023/04/20 09:18:22;;;;;;;6.20;2.40;;;;;;;;;;5111303;28;20487;-61
2023/04/20 09:20:48;;;;;;;3.45;2.47;;;;;;;;;;5110775;28;20043;-61
2023/04/20 09:23:15;;;;;;;3.97;1.77;;;;;;;;;;5111155;28;20031;-61
2023/04/20 09:25:42;;;;;;;5.97;2.55;;;;;;;;;;5110439;28;20020;-61
2023/04/20 09:28:09;;;;;;;4.93;2.40;;;;;;;;;;5109914;28;20028;-61
2023/04/20 09:30:38;;;;;;;3.95;2.38;;;;;;;;;;5110125;28;20019;-61
2023/04/20 09:33:04;;;;;;;5.82;2.17;;;;;;;;;;5110833;28;20349;-61
2023/04/20 09:35:30;;;;;;;3.17;2.22;;;;;;;;;;5109766;28;20157;-61
2023/04/20 09:37:56;;;;;;;5.90;2.22;;;;;;;;;;5110797;28;20076;-61
2023/04/20 09:40:24;;;;;;;4.68;2.15;;;;;;;;;;5111141;28;20405;-62
2023/04/20 09:42:51;;;;;;;4.85;2.70;;;;;;;;;;5114420;28;20028;-62
2023/04/20 09:45:17;;;;;;;4.25;2.00;;;;;;;;;;5113683;28;20024;-63
2023/04/20 09:47:43;;;;;;;4.65;2.25;;;;;;;;;;5114157;28;20097;-63
2023/04/20 09:50:10;;;;;;;3.45;2.00;;;;;;;;;;5113793;28;20023;-63
2023/04/20 09:52:39;;;;;;;3.38;2.20;;;;;;;;;;5114356;28;20027;-62
2023/04/20 09:55:06;;;;;;;4.35;2.42;;;;;;;;;;5114470;28;20020;-62
2023/04/20 09:57:32;;;;;;;3.55;2.00;;;;;;;;;;5112949;28;20035;-64
2023/04/20 10:00:00;;;;;;;4.03;2.20;;;;;;;;;;5114340;28;20024;-61
2023/04/20 10:02:26;;;;;;;4.50;2.22;;;;;;;;;;5114405;28;20089;-64
2023/04/20 10:04:52;;;;;;;3.90;2.28;;;;;;;;;;5114160;28;20012;-62
2023/04/20 10:07:28;;;;;;;5.65;2.25;;;;;;;;;;5114357;28;20380;-61
2023/04/20 10:10:05;;;;;;;2.60;1.67;;;;;;;;;;5114207;28;20030;-62
2023/04/20 10:12:31;;;;;;;2.90;2.08;;;;;;;;;;5113811;28;20035;-62
2023/04/20 10:14:59;;;;;;;4.30;2.15;;;;;;;;;;5113310;28;20058;-62
2023/04/20 10:17:32;;;;;;;3.70;2.42;;;;;;;;;;5113794;28;20637;-63
2023/04/20 10:19:58;;;;;;;3.03;1.90;;;;;;;;;;5114225;28;20395;-62
2023/04/20 10:22:33;;;;;;;2.55;2.03;;;;;;;;;;5113765;28;20027;-63
2023/04/20 10:25:01;;;;;;;5.28;2.30;;;;;;;;;;5113900;27;20027;-61
2023/04/20 10:27:27;;;;;;;4.80;2.28;;;;;;;;;;5113834;28;20046;-62
2023/04/20 10:29:53;;;;;;;3.55;2.05;;;;;;;;;;5113725;28;20114;-62
2023/04/20 10:32:23;;;;;;;3.55;2.38;;;;;;;;;;5114028;28;20028;-62
2023/04/20 10:34:59;;;;;;;3.95;2.20;;;;;;;;;;5111807;28;20016;-61
2023/04/20 10:37:25;;;;;;;4.30;2.38;;;;;;;;;;5112940;27;20283;-61
2023/04/20 10:39:51;;;;;;;5.20;2.60;;;;;;;;;;5113351;28;20028;-62
2023/04/20 10:42:17;;;;;;;4.88;2.58;;;;;;;;;;5113361;28;20039;-61
2023/04/20 10:44:50;;;;;;;4.22;2.45;;;;;;;;;;5113593;28;20426;-61
2023/04/20 10:47:17;;;;;;;5.05;2.83;;;;;;;;;;5113820;28;20032;-62
2023/04/20 10:49:43;;;;;;;4.65;2.40;;;;;;;;;;5113493;28;20023;-62
2023/04/20 10:52:10;;;;;;;4.00;2.22;;;;;;;;;;5112672;27;20016;-62
2023/04/20 10:54:37;;;;;;;3.60;2.33;;;;;;;;;;5111861;28;20031;-62
2023/04/20 10:57:05;;;;;;;4.25;2.55;;;;;;;;;;5113195;28;20015;-61
2023/04/20 10:59:33;;;;;;;11.55;3.00;;;;;;;;;;5112621;28;20023;-62
2023/04/20 11:02:00;;;;;;;6.47;2.88;;;;;;;;;;5113267;28;20039;-62
2023/04/20 11:04:32;;;;;;;4.53;2.80;;;;;;;;;;5113024;28;20024;-61
2023/04/20 11:07:06;;;;;;;3.05;2.50;;;;;;;;;;5113260;28;20107;-61
2023/04/20 11:09:33;;;;;;;5.75;2.85;;;;;;;;;;5111776;28;20016;-61
2023/04/20 11:11:59;;;;;;;3.55;2.72;;;;;;;;;;5112512;28;20479;-62
2023/04/20 11:14:25;;;;;;;3.67;2.20;;;;;;;;;;5112775;28;20031;-61
2023/04/20 11:16:52;;;;;;;4.70;2.95;;;;;;;;;;5112493;28;20431;-61
2023/04/20 11:19:25;;;;;;;5.45;2.95;;;;;;;;;;5112920;28;20022;-61
2023/04/20 11:21:51;;;;;;;4.85;2.55;;;;;;;;;;5112507;28;20031;-62
2023/04/20 11:24:21;;;;;;;5.75;2.40;;;;;;;;;;5112702;28;20028;-61
2023/04/20 11:26:53;;;;;;;4.93;2.50;;;;;;;;;;5112370;28;20058;-63
2023/04/20 11:29:35;;;;;;;6.30;2.83;;;;;;;;;;5112850;28;20102;-62
2023/04/20 11:32:05;;;;;;;3.42;2.70;;;;;;;;;;5092315;28;20031;-63
2023/04/20 11:34:32;;;;;;;3.72;2.28;;;;;;;;;;5091711;28;20468;-62
2023/04/20 11:37:03;;;;;;;4.13;2.40;;;;;;;;;;5092246;28;20032;-63
2023/04/20 11:39:29;;;;;;;7.60;2.90;;;;;;;;;;5093127;28;20024;-62
2023/04/20 11:41:56;;;;;;;4.75;2.47;;;;;;;;;;5111799;28;20031;-63
2023/04/20 11:44:22;;;;;;;4.72;2.65;;;;;;;;;;5112268;28;20532;-64
2023/04/20 11:46:49;;;;;;;4.07;2.58;;;;;;;;;;5112356;28;20020;-62
2023/04/20 11:49:18;;;;;;;3.97;2.58;;;;;;;;;;5112371;28;20130;-63
2023/04/20 11:51:45;;;;;;;5.72;2.60;;;;;;;;;;5111660;28;20102;-62
2023/04/20 11:54:11;;;;;;;5.68;2.30;;;;;;;;;;5111978;28;20135;-63
2023/04/20 11:56:37;;;;;;;5.72;2.30;;;;;;;;;;5111387;28;20024;-63
2023/04/20 11:59:03;;;;;;;5.10;2.67;;;;;;;;;;5112254;28;20030;-63
2023/04/20 12:01:29;;;;;;;3.92;2.28;;;;;;;;;;5111019;28;20024;-62
2023/04/20 12:03:55;;;;;;;4.22;2.50;;;;;;;;;;5111408;28;20035;-62
2023/04/20 12:06:21;;;;;;;4.18;2.55;;;;;;;;;;5112304;28;20027;-61
2023/04/20 12:08:47;;;;;;;5.35;2.75;;;;;;;;;;5112015;27;20511;-62
2023/04/20 12:11:17;;;;;;;5.80;2.53;;;;;;;;;;5111128;27;20047;-61
2023/04/20 12:13:43;;;;;;;5.00;2.60;;;;;;;;;;5111501;28;20032;-61
2023/04/20 12:16:09;;;;;;;3.50;2.22;;;;;;;;;;5111840;28;20030;-61
2023/04/20 12:18:35;;;;;;;5.63;2.42;;;;;;;;;;5111621;28;20120;-62
2023/04/20 12:21:01;;;;;;;3.85;2.33;;;;;;;;;;5110580;28;20405;-61
2023/04/20 12:23:28;;;;;;;4.88;2.47;;;;;;;;;;5111071;28;20076;-62
2023/04/20 12:25:54;;;;;;;9.23;3.08;;;;;;;;;;5110554;28;20078;-61
2023/04/20 12:28:20;;;;;;;4.32;2.55;;;;;;;;;;5111504;28;20123;-62
2023/04/20 12:30:46;;;;;;;3.70;2.17;;;;;;;;;;5111081;28;20506;-62
2023/04/20 12:33:12;;;;;;;4.60;2.22;;;;;;;;;;5110975;28;20028;-62
2023/04/20 12:35:38;;;;;;;3.17;2.35;;;;;;;;;;5111426;28;20020;-61
2023/04/20 12:38:04;;;;;;;9.25;2.40;;;;;;;;;;5111213;28;20043;-61
2023/04/20 12:40:30;;;;;;;5.78;2.75;;;;;;;;;;5111400;28;20016;-62
2023/04/20 12:42:56;;;;;;;5.40;2.50;;;;;;;;;;5111547;28;20479;-61
2023/04/20 12:45:22;;;;;;;5.93;2.60;;;;;;;;;;5111948;28;20073;-61
2023/04/20 12:47:49;;;;;;;3.78;2.47;;;;;;;;;;5111632;28;20073;-61
2023/04/20 12:50:14;;;;;;;4.90;2.33;;;;;;;;;;5111127;28;20073;-61
2023/04/20 12:52:40;;;;;;;5.13;2.65;;;;;;;;;;5111235;28;20425;-62
2023/04/20 12:55:07;;;;;;;2.95;2.38;;;;;;;;;;5111338;28;20020;-62
2023/04/20 12:57:33;;;;;;;2.75;2.30;;;;;;;;;;5111309;28;20051;-63
2023/04/20 13:00:02;;;;;;;4.95;2.80;;;;;;;;;;5110994;28;20028;-63
2023/04/20 13:02:28;;;;;;;5.20;2.00;;;;;;;;;;5111305;28;20069;-63
2023/04/20 13:04:54;;;;;;;3.53;2.58;;;;;;;;;;5111263;28;20016;-61
2023/04/20 13:07:20;;;;;;;4.15;2.55;;;;;;;;;;5111651;28;20027;-61
2023/04/20 13:09:46;;;;;;;4.45;2.47;;;;;;;;;;5110800;28;20040;-63
2023/04/20 13:12:12;;;;;;;3.53;2.35;;;;;;;;;;5111338;28;20136;-61
2023/04/20 13:14:38;;;;;;;6.53;2.45;;;;;;;;;;5111714;28;20551;-62
2023/04/20 13:17:05;;;;;;;4.55;2.63;;;;;;;;;;5115460;28;20102;-62
2023/04/20 13:19:32;;;;;;;5.38;2.80;;;;;;;;;;5114486;28;20020;-61
2023/04/20 13:21:58;;;;;;;6.25;2.78;;;;;;;;;;5115134;28;20093;-61
2023/04/20 13:24:24;;;;;;;4.30;2.67;;;;;;;;;;5115331;28;20391;-61
2023/04/20 13:26:55;;;;;;;4.45;2.70;;;;;;;;;;5115298;28;20072;-62
2023/04/20 13:29:21;;;;;;;6.55;3.10;;;;;;;;;;5114665;28;20032;-62
2023/04/20 13:31:47;;;;;;;3.90;2.60;;;;;;;;;;5114777;28;20023;-61
2023/04/20 13:34:13;;;;;;;3.97;2.85;;;;;;;;;;5114891;28;20459;-62
2023/04/20 13:36:39;;;;;;;4.53;3.05;;;;;;;;;;5114659;28;20020;-61
2023/04/20 13:39:06;;;;;;;5.85;2.63;;;;;;;;;;5116712;27;20498;-62
2023/04/20 13:41:32;;;;;;;5.28;2.58;;;;;;;;;;5111174;28;20437;-62
2023/04/20 13:44:00;;;;;;;5.30;3.10;;;;;;;;;;5114534;28;20028;-62
2023/04/20 13:46:26;;;;;;;4.68;2.80;;;;;;;;;;5114680;28;20031;-62
2023/04/20 13:48:52;;;;;;;5.07;2.67;;;;;;;;;;5114508;28;20023;-62
2023/04/20 13:51:18;;;;;;;4.53;2.70;;;;;;;;;;5114403;28;20068;-62
2023/04/20 13:53:44;;;;;;;4.85;2.80;;;;;;;;;;5114283;28;20102;-61
2023/04/20 13:56:10;;;;;;;5.30;2.80;;;;;;;;;;5114284;28;20008;-62
2023/04/20 13:58:36;;;;;;;3.72;2.75;;;;;;;;;;5114151;28;20024;-62
2023/04/20 14:01:07;;;;;;;7.28;2.97;;;;;;;;;;5114126;28;20026;-61
2023/04/20 14:03:33;;;;;;;5.32;2.92;;;;;;;;;;5113556;28;20035;-62
2023/04/20 14:05:59;;;;;;;4.55;2.60;;;;;;;;;;5115021;27;20034;-62
2023/04/20 14:08:25;;;;;;;4.72;2.88;;;;;;;;;;5114314;28;20028;-61
2023/04/20 14:10:51;;;;;;;5.15;2.50;;;;;;;;;;5114016;28;20028;-62
2023/04/20 14:13:17;;;;;;;7.93;3.10;;;;;;;;;;5113915;28;20020;-61
2023/04/20 14:15:43;;;;;;;6.18;2.60;;;;;;;;;;5113869;28;20059;-62
2023/04/20 14:18:09;;;;;;;5.63;2.75;;;;;;;;;;5113484;28;20107;-61
2023/04/20 14:20:35;;;;;;;4.82;2.92;;;;;;;;;;5113587;28;20023;-62
2023/04/20 14:23:01;;;;;;;4.95;2.78;;;;;;;;;;5113784;28;20039;-62
2023/04/20 14:25:27;;;;;;;7.50;2.90;;;;;;;;;;5113901;27;20110;-62
2023/04/20 14:27:53;;;;;;;6.72;2.67;;;;;;;;;;5112800;28;20062;-62
2023/04/20 14:30:19;;;;;;;4.13;2.60;;;;;;;;;;5113669;28;20020;-62
2023/04/20 14:32:55;;;;;;;5.30;2.80;;;;;;;;;;5113126;28;20419;-62
2023/04/20 14:35:21;;;;;;;5.18;3.30;;;;;;;;;;5113870;28;20023;-61
2023/04/20 14:37:47;;;;;;;4.68;2.50;;;;;;;;;;5113181;28;20031;-61
2023/04/20 14:40:14;;;;;;;6.68;3.03;;;;;;;;;;5113693;28;20043;-62